Longville, Minnesota
Current Conditions -  °F | °C
As of 11:16 PM on Monday 22 Dec 2014 (Local Time) from KXVG Reporting Station
Unknown Precip Unknown Precip  
Wind Chill: 30°   Ceiling: 400
Heat Index: 34°   Visibility: 2.5mi
Dew Point: 34°   Wind: 5mph
Humidity: 100%   Direction: 80°E
Pressure: 29.71"   Gusts: NA
Location:  46.99°N, 94.21°W
Report Text: KXVG 230516Z AUTO 08004KT 2 1/2SM UP OVC004 01/01 A2971 RMK AO2
Loading
Personal Weather Stations






























Interactive Weather Map New forecast layout! Learn more

10-Day Weather Forecast

Advertisements
Track Severe Weather on mobile